createdAt,value
2022-09-11T00:00:16.261Z,94164.03
2022-09-11T00:02:45.168Z,94165.94
2022-09-11T00:05:12.829Z,94167.84
2022-09-11T00:07:40.461Z,94170.56
2022-09-11T00:10:08.569Z,94170.56
2022-09-11T00:12:36.169Z,94167.03
2022-09-11T00:15:04.174Z,94166.22
2022-09-11T00:17:31.740Z,94164.31
2022-09-11T00:20:01.133Z,94168.94
2022-09-11T00:22:28.882Z,94168.13
2022-09-11T00:24:56.429Z,94173.56
2022-09-11T00:27:24.113Z,94169.19
2022-09-11T00:29:51.680Z,94164.59
2022-09-11T00:32:19.214Z,94160.25
2022-09-11T00:34:46.807Z,94160.25
2022-09-11T00:37:15.717Z,94162.13
2022-09-11T00:39:43.293Z,94158.63
2022-09-11T00:42:11.609Z,94157.78
2022-09-11T00:45:00.240Z,94152.34
2022-09-11T00:47:27.885Z,94149.63
2022-09-11T00:49:56.017Z,94157.78
2022-09-11T00:52:27.071Z,94149.63
2022-09-11T00:54:56.324Z,94148.00
2022-09-11T00:57:24.854Z,94155.38
2022-09-11T00:59:52.830Z,94155.38
2022-09-11T01:02:23.270Z,94149.94
2022-09-11T01:04:54.397Z,94149.94
2022-09-11T01:07:22.000Z,94153.75
2022-09-11T01:09:51.139Z,94154.53
2022-09-11T01:12:20.766Z,94151.81
2022-09-11T01:14:53.416Z,94147.47
2022-09-11T01:17:24.525Z,94142.88
2022-09-11T01:20:10.066Z,94147.47
2022-09-11T01:22:47.050Z,94141.25
2022-09-11T01:25:21.573Z,94139.59
2022-09-11T01:27:51.162Z,94144.22
2022-09-11T01:30:19.525Z,94141.25
2022-09-11T01:32:59.159Z,94145.84
2022-09-11T01:35:28.753Z,94141.50
2022-09-11T01:37:58.274Z,94139.59
2022-09-11T01:40:27.241Z,94143.41
2022-09-11T01:43:00.797Z,94141.78
2022-09-11T01:45:28.452Z,94141.78
2022-09-11T01:47:56.007Z,94140.69
2022-09-11T01:50:23.552Z,94134.72
2022-09-11T01:52:53.156Z,94141.78
2022-09-11T01:55:22.248Z,94135.53
2022-09-11T01:57:51.163Z,94134.72
2022-09-11T02:00:20.354Z,94133.09
2022-09-11T02:02:49.326Z,94136.34
2022-09-11T02:05:18.037Z,94138.25
2022-09-11T02:07:47.717Z,94137.44
2022-09-11T02:10:18.146Z,94141.25
2022-09-11T02:12:48.741Z,94141.25
2022-09-11T02:15:16.774Z,94144.81
2022-09-11T02:17:49.100Z,94141.25
2022-09-11T02:20:16.851Z,94131.47
2022-09-11T02:22:44.537Z,94134.19
2022-09-11T02:25:13.668Z,94127.97
2022-09-11T02:27:41.198Z,94132.31
2022-09-11T02:30:10.040Z,94136.09
2022-09-11T02:32:37.836Z,94129.84
2022-09-11T02:35:07.842Z,94132.56
2022-09-11T02:37:42.013Z,94132.56
2022-09-11T02:40:20.184Z,94124.41
2022-09-11T02:43:06.192Z,94120.91
2022-09-11T02:45:36.829Z,94123.63
2022-09-11T02:48:15.915Z,94122.78
2022-09-11T02:50:46.848Z,94119.25
2022-09-11T02:53:16.536Z,94121.97
2022-09-11T02:55:50.882Z,94123.88
2022-09-11T02:58:20.641Z,94122.25
2022-09-11T03:00:48.316Z,94122.25
2022-09-11T03:03:15.940Z,94124.97
2022-09-11T03:05:44.822Z,94126.88
2022-09-11T03:08:12.349Z,94135.84
2022-09-11T03:10:39.916Z,94123.34
2022-09-11T03:13:07.452Z,94123.34
2022-09-11T03:15:35.021Z,94124.16
2022-09-11T03:18:05.036Z,94128.78
2022-09-11T03:20:34.088Z,94127.16
2022-09-11T03:23:09.504Z,94131.50
2022-09-11T03:25:37.038Z,94124.44
2022-09-11T03:28:04.649Z,94127.16
2022-09-11T03:30:32.302Z,94122.81
2022-09-11T03:33:00.592Z,94129.06
2022-09-11T03:35:28.135Z,94127.16
2022-09-11T03:37:55.946Z,94127.16
2022-09-11T03:40:24.918Z,94114.66
2022-09-11T03:42:52.949Z,94123.63
2022-09-11T03:45:21.348Z,94116.28
2022-09-11T03:47:48.989Z,94118.47
2022-09-11T03:50:16.580Z,94117.66
2022-09-11T03:52:44.368Z,94116.56
2022-09-11T03:55:12.052Z,94116.56
2022-09-11T03:57:40.962Z,94119.28
2022-09-11T04:00:09.962Z,94118.47
2022-09-11T04:02:37.524Z,94124.97
2022-09-11T04:05:05.877Z,94127.44
2022-09-11T04:07:34.572Z,94129.34
2022-09-11T04:10:02.117Z,94125.81
2022-09-11T04:12:29.722Z,94126.06
2022-09-11T04:14:58.601Z,94135.84
2022-09-11T04:17:26.160Z,94139.41
2022-09-11T04:19:53.804Z,94126.06
2022-09-11T04:22:21.338Z,94125.28
2022-09-11T04:24:48.926Z,94128.00
2022-09-11T04:27:17.752Z,94133.44
2022-09-11T04:29:46.080Z,94130.72
2022-09-11T04:32:14.996Z,94136.16
2022-09-11T04:34:42.521Z,94136.16
2022-09-11T04:37:11.480Z,94132.91
2022-09-11T04:39:39.265Z,94136.41
2022-09-11T04:42:08.971Z,94134.78
2022-09-11T04:44:36.534Z,94144.56
2022-09-11T04:47:04.211Z,94136.41
2022-09-11T04:49:33.328Z,94138.59
2022-09-11T04:52:02.799Z,94144.84
2022-09-11T04:54:30.358Z,94146.47
2022-09-11T04:56:57.893Z,94142.94
2022-09-11T04:59:25.420Z,94144.03
2022-09-11T05:01:54.407Z,94138.59
2022-09-11T05:04:25.981Z,94139.69
2022-09-11T05:06:55.437Z,94135.09
2022-09-11T05:09:23.019Z,94142.41
2022-09-11T05:11:50.580Z,94143.22
2022-09-11T05:14:18.265Z,94138.06
2022-09-11T05:16:46.034Z,94144.31
2022-09-11T05:19:13.641Z,94147.84
2022-09-11T05:21:41.485Z,94149.72
2022-09-11T05:24:10.625Z,94158.72
2022-09-11T05:26:38.517Z,94158.97
2022-09-11T05:29:07.145Z,94157.09
2022-09-11T05:31:34.873Z,94155.47
2022-09-11T05:34:03.159Z,94161.69
2022-09-11T05:36:31.713Z,94160.91
2022-09-11T05:38:59.395Z,94165.50
2022-09-11T05:41:28.373Z,94173.66
2022-09-11T05:43:55.933Z,94179.94
2022-09-11T05:46:23.445Z,94179.09
2022-09-11T05:48:50.955Z,94181.00
2022-09-11T05:51:21.309Z,94177.47
2022-09-11T05:53:50.410Z,94182.91
2022-09-11T05:56:19.066Z,94183.72
2022-09-11T05:58:48.550Z,94191.88
2022-09-11T06:01:17.069Z,94188.34
2022-09-11T06:03:44.853Z,94195.69
2022-09-11T06:06:13.249Z,94198.41
2022-09-11T06:08:42.674Z,94203.84
2022-09-11T06:11:10.961Z,94204.94
2022-09-11T06:13:39.780Z,94202.22
2022-09-11T06:16:09.938Z,94200.31
2022-09-11T06:18:37.545Z,94208.47
2022-09-11T06:21:07.026Z,94208.47
2022-09-11T06:23:34.682Z,94202.22
2022-09-11T06:26:05.542Z,94212.28
2022-09-11T06:28:33.081Z,94215.00
2022-09-11T06:31:02.262Z,94211.19
2022-09-11T06:33:34.414Z,94223.13
2022-09-11T06:36:03.991Z,94219.31
2022-09-11T06:38:31.814Z,94223.13
2022-09-11T06:40:59.969Z,94213.34
2022-09-11T06:43:27.462Z,94223.13
2022-09-11T06:45:55.115Z,94218.78
2022-09-11T06:48:22.799Z,94215.25
2022-09-11T06:50:51.677Z,94222.34
2022-09-11T06:53:19.325Z,94220.69
2022-09-11T06:55:46.832Z,94225.06
2022-09-11T06:58:14.354Z,94227.78
2022-09-11T07:00:41.916Z,94225.84
2022-09-11T07:03:09.732Z,94218.53
2022-09-11T07:05:37.277Z,94224.75
2022-09-11T07:08:06.474Z,94216.63
2022-09-11T07:10:34.163Z,94216.63
2022-09-11T07:13:01.691Z,94220.94
2022-09-11T07:15:29.210Z,94214.72
2022-09-11T07:17:56.724Z,94224.75
2022-09-11T07:20:24.292Z,94228.31
2022-09-11T07:22:51.800Z,94231.81
2022-09-11T07:25:20.685Z,94232.13
2022-09-11T07:27:48.206Z,94235.63
2022-09-11T07:30:15.992Z,94233.75
2022-09-11T07:32:43.570Z,94232.91
2022-09-11T07:35:11.222Z,94243.53
2022-09-11T07:37:38.755Z,94234.28
2022-09-11T07:40:06.983Z,94248.66
2022-09-11T07:42:36.000Z,94254.09
2022-09-11T07:45:03.570Z,94256.81
2022-09-11T07:47:33.777Z,94252.22
2022-09-11T07:50:01.321Z,94251.38
2022-09-11T07:52:28.870Z,94252.22
2022-09-11T07:54:56.444Z,94261.16
2022-09-11T07:57:24.205Z,94260.38
2022-09-11T07:59:53.105Z,94264.97
2022-09-11T08:02:20.673Z,94260.38
2022-09-11T08:04:48.274Z,94267.69
2022-09-11T08:07:16.497Z,94268.78
2022-09-11T08:09:44.048Z,94260.38
2022-09-11T08:12:11.982Z,94258.75
2022-09-11T08:14:39.549Z,94263.63
2022-09-11T08:17:08.448Z,94273.69
2022-09-11T08:19:36.052Z,94273.66
2022-09-11T08:22:03.979Z,94284.25
2022-09-11T08:24:31.488Z,94285.59
2022-09-11T08:26:59.032Z,94288.03
2022-09-11T08:29:26.684Z,94293.47
2022-09-11T08:31:54.235Z,94293.97
2022-09-11T08:34:23.221Z,94292.88
2022-09-11T08:36:51.943Z,94300.22
2022-09-11T08:39:20.299Z,94306.72
2022-09-11T08:41:49.111Z,94305.59
2022-09-11T08:44:19.365Z,94316.50
2022-09-11T08:46:48.941Z,94314.84
2022-09-11T08:49:19.842Z,94311.53
2022-09-11T08:51:49.904Z,94314.56
2022-09-11T08:54:23.843Z,94317.56
2022-09-11T08:56:51.484Z,94315.38
2022-09-11T08:59:21.832Z,94310.44
2022-09-11T09:01:53.531Z,94311.50
2022-09-11T09:04:41.409Z,94311.78
2022-09-11T09:07:14.578Z,94316.66
2022-09-11T09:09:45.283Z,94324.28
2022-09-11T09:12:16.029Z,94323.41
2022-09-11T09:14:51.265Z,94327.53
2022-09-11T09:17:19.937Z,94335.47
2022-09-11T09:19:48.972Z,94330.34
2022-09-11T09:22:19.884Z,94325.16
2022-09-11T09:24:49.933Z,94337.72
2022-09-11T09:27:19.986Z,94338.53
2022-09-11T09:29:47.732Z,94342.06
2022-09-11T09:32:20.961Z,94341.25
2022-09-11T09:34:48.504Z,94351.06
2022-09-11T09:37:18.951Z,94339.38
2022-09-11T09:39:46.534Z,94336.41
2022-09-11T09:42:34.580Z,94339.41
2022-09-11T09:45:18.943Z,94335.88
2022-09-11T09:47:46.649Z,94345.69
2022-09-11T09:50:18.234Z,94337.25
2022-09-11T09:52:47.586Z,94341.88
2022-09-11T09:55:16.493Z,94347.06
2022-09-11T09:57:44.289Z,94342.44
2022-09-11T10:00:17.286Z,94345.44
2022-09-11T10:02:49.098Z,94351.97
2022-09-11T10:05:18.953Z,94352.78
2022-09-11T10:07:53.083Z,94340.25
2022-09-11T10:10:26.566Z,94335.38
2022-09-11T10:13:17.304Z,94332.13
2022-09-11T10:15:43.159Z,94326.69
2022-09-11T10:18:24.438Z,94330.22
2022-09-11T10:20:52.616Z,94340.00
2022-09-11T10:23:25.740Z,94336.19
2022-09-11T10:25:53.305Z,94338.91
2022-09-11T10:28:25.493Z,94331.56
2022-09-11T10:30:57.893Z,94334.84
2022-09-11T10:33:28.316Z,94332.38
2022-09-11T10:35:56.322Z,94329.38
2022-09-11T10:38:28.025Z,94329.38
2022-09-11T10:41:18.843Z,94330.22
2022-09-11T10:43:48.487Z,94332.09
2022-09-11T10:46:38.997Z,94326.94
2022-09-11T10:49:20.126Z,94332.38
2022-09-11T10:52:02.123Z,94331.28
2022-09-11T10:54:39.420Z,94339.19
2022-09-11T10:57:13.169Z,94338.09
2022-09-11T10:59:45.955Z,94343.53
2022-09-11T11:02:19.305Z,94338.91
2022-09-11T11:04:46.889Z,94343.53
2022-09-11T11:07:20.929Z,94352.50
2022-09-11T11:09:56.158Z,94351.69
2022-09-11T11:12:33.009Z,94356.31
2022-09-11T11:15:13.606Z,94351.69
2022-09-11T11:17:43.476Z,94354.41
2022-09-11T11:20:17.705Z,94364.19
2022-09-11T11:22:56.158Z,94368.81
2022-09-11T11:25:27.345Z,94382.41
2022-09-11T11:28:06.428Z,94383.22
2022-09-11T11:30:35.106Z,94373.44
2022-09-11T11:33:23.776Z,94378.06
2022-09-11T11:35:55.688Z,94373.44
2022-09-11T11:38:24.794Z,94380.78
2022-09-11T11:40:55.749Z,94369.09
2022-09-11T11:43:24.489Z,94372.63
2022-09-11T11:45:53.504Z,94366.38
2022-09-11T11:48:23.745Z,94362.84
2022-09-11T11:51:11.858Z,94368.28
2022-09-11T11:54:01.386Z,94367.44
2022-09-11T11:56:33.849Z,94367.44
2022-09-11T11:59:03.764Z,94372.06
2022-09-11T12:01:36.927Z,94364.72
2022-09-11T12:04:06.026Z,94364.72
2022-09-11T12:06:33.565Z,94376.44
2022-09-11T12:09:01.092Z,94373.72
2022-09-11T12:11:31.776Z,94379.94
2022-09-11T12:13:59.498Z,94369.91
2022-09-11T12:16:29.069Z,94372.63
2022-09-11T12:19:07.827Z,94368.00
2022-09-11T12:21:42.745Z,94375.06
2022-09-11T12:24:13.985Z,94371.25
2022-09-11T12:26:48.763Z,94366.34
2022-09-11T12:29:43.790Z,94363.38
2022-09-11T12:32:42.998Z,94365.25
2022-09-11T12:35:22.313Z,94363.09
2022-09-11T12:37:54.341Z,94361.19
2022-09-11T12:40:24.929Z,94354.38
2022-09-11T12:42:58.861Z,94361.72
2022-09-11T12:45:35.447Z,94364.44
2022-09-11T12:48:05.333Z,94365.28
2022-09-11T12:50:33.174Z,94366.06
2022-09-11T12:53:02.400Z,94366.91
2022-09-11T12:55:33.112Z,94370.97
2022-09-11T12:58:03.509Z,94365.53
2022-09-11T13:00:36.445Z,94365.25
2022-09-11T13:03:03.976Z,94368.81
2022-09-11T13:05:34.449Z,94368.81
2022-09-11T13:08:04.197Z,94366.88
2022-09-11T13:10:35.054Z,94370.44
2022-09-11T13:13:05.409Z,94365.00
2022-09-11T13:15:35.638Z,94365.78
2022-09-11T13:18:16.333Z,94360.34
2022-09-11T13:20:43.884Z,94351.09
2022-09-11T13:23:16.095Z,94351.09
2022-09-11T13:25:43.679Z,94349.47
2022-09-11T13:28:17.362Z,94353.81
2022-09-11T13:30:52.681Z,94356.53
2022-09-11T13:33:23.891Z,94353.81
2022-09-11T13:35:51.436Z,94348.38
2022-09-11T13:38:19.465Z,94352.75
2022-09-11T13:40:48.710Z,94350.84
2022-09-11T13:43:18.820Z,94351.94
2022-09-11T13:45:47.442Z,94351.09
2022-09-11T13:48:21.157Z,94355.47
2022-09-11T13:50:49.576Z,94340.22
2022-09-11T13:53:17.214Z,94342.94
2022-09-11T13:55:46.740Z,94345.66
2022-09-11T13:58:23.134Z,94350.31
2022-09-11T14:00:50.858Z,94346.75
2022-09-11T14:03:21.484Z,94350.31
2022-09-11T14:05:50.481Z,94342.41
2022-09-11T14:08:24.923Z,94338.88
2022-09-11T14:10:53.450Z,94345.97
2022-09-11T14:13:23.264Z,94344.31
2022-09-11T14:15:52.873Z,94340.78
2022-09-11T14:18:25.362Z,94340.78
2022-09-11T14:20:53.376Z,94339.97
2022-09-11T14:23:22.808Z,94336.44
2022-09-11T14:26:07.286Z,94333.72
2022-09-11T14:28:37.980Z,94331.28
2022-09-11T14:31:07.468Z,94326.66
2022-09-11T14:33:35.069Z,94327.47
2022-09-11T14:36:07.596Z,94326.66
2022-09-11T14:38:36.168Z,94328.56
2022-09-11T14:41:04.013Z,94339.44
2022-09-11T14:43:32.769Z,94331.28
2022-09-11T14:46:02.270Z,94334.28
2022-09-11T14:48:30.386Z,94341.34
2022-09-11T14:50:58.154Z,94334.28
2022-09-11T14:53:30.364Z,94335.38
2022-09-11T14:55:58.493Z,94339.72
2022-09-11T14:58:26.419Z,94335.38
2022-09-11T15:00:54.010Z,94332.63
2022-09-11T15:03:24.397Z,94321.75
2022-09-11T15:05:54.592Z,94333.72
2022-09-11T15:08:22.092Z,94326.38
2022-09-11T15:10:49.746Z,94339.16
2022-09-11T15:13:17.247Z,94332.91
2022-09-11T15:15:45.174Z,94334.00
2022-09-11T15:18:12.708Z,94332.09
2022-09-11T15:20:41.613Z,94329.38
2022-09-11T15:23:09.178Z,94332.91
2022-09-11T15:25:36.758Z,94323.13
2022-09-11T15:28:06.413Z,94330.47
2022-09-11T15:30:34.132Z,94323.13
2022-09-11T15:33:01.807Z,94329.66
2022-09-11T15:35:32.780Z,94327.75
2022-09-11T15:38:04.312Z,94314.16
2022-09-11T15:40:32.470Z,94321.22
2022-09-11T15:43:00.005Z,94311.44
2022-09-11T15:45:27.617Z,94318.78
2022-09-11T15:47:55.219Z,94309.81
2022-09-11T15:50:28.183Z,94309.00
2022-09-11T15:52:55.763Z,94309.00
2022-09-11T15:55:26.507Z,94312.53
2022-09-11T15:57:54.059Z,94312.53
2022-09-11T16:00:21.945Z,94307.38
2022-09-11T16:02:52.131Z,94313.59
2022-09-11T16:05:19.673Z,94316.31
2022-09-11T16:07:47.686Z,94318.22
2022-09-11T16:10:15.199Z,94316.06
2022-09-11T16:12:46.274Z,94313.34
2022-09-11T16:15:13.862Z,94310.63
2022-09-11T16:17:41.441Z,94316.88
2022-09-11T16:20:09.981Z,94309.81
2022-09-11T16:22:38.086Z,94309.81
2022-09-11T16:25:06.229Z,94315.25
2022-09-11T16:27:34.569Z,94315.25
2022-09-11T16:32:51.556Z,94308.16
2022-09-11T16:35:19.941Z,94310.88
2022-09-11T16:37:48.382Z,94311.38
2022-09-11T16:40:16.026Z,94309.47
2022-09-11T16:42:43.588Z,94308.38
2022-09-11T16:45:12.504Z,94306.44
2022-09-11T16:47:40.045Z,94301.78
2022-09-11T16:50:08.529Z,94308.56
2022-09-11T16:52:36.403Z,94301.50
2022-09-11T16:55:04.145Z,94297.13
2022-09-11T16:57:32.496Z,94301.75
2022-09-11T17:00:00.182Z,94299.28
2022-09-11T17:02:29.115Z,94300.34
2022-09-11T17:04:56.665Z,94292.72
2022-09-11T17:07:24.678Z,94294.59
2022-09-11T17:09:52.252Z,94290.53
2022-09-11T17:12:21.151Z,94298.13
2022-09-11T17:14:49.281Z,94297.84
2022-09-11T17:17:16.804Z,94289.91
2022-09-11T17:19:45.657Z,94291.28
2022-09-11T17:22:15.087Z,94282.00
2022-09-11T17:24:42.624Z,94289.38
2022-09-11T17:27:10.168Z,94281.72
2022-09-11T17:29:41.199Z,94279.53
2022-09-11T17:32:27.222Z,94279.25
2022-09-11T17:34:58.261Z,94279.78
2022-09-11T17:37:26.357Z,94277.88
2022-09-11T17:39:53.937Z,94278.41
2022-09-11T17:42:22.526Z,94280.84
2022-09-11T17:44:50.084Z,94279.47
2022-09-11T17:47:17.636Z,94284.63
2022-09-11T17:49:45.213Z,94280.00
2022-09-11T17:52:15.476Z,94278.09
2022-09-11T17:54:43.214Z,94281.34
2022-09-11T17:57:11.864Z,94286.50
2022-09-11T17:59:39.543Z,94290.06
2022-09-11T18:02:07.345Z,94293.00
2022-09-11T18:04:34.871Z,94290.28
2022-09-11T18:07:03.501Z,94294.38
2022-09-11T18:09:32.361Z,94300.63
2022-09-11T18:11:59.900Z,94297.63
2022-09-11T18:14:27.853Z,94294.38
2022-09-11T18:16:55.409Z,94297.94
2022-09-11T18:19:22.935Z,94300.97
2022-09-11T18:21:50.736Z,94301.78
2022-09-11T18:24:19.858Z,94297.47
2022-09-11T18:26:49.979Z,94298.31
2022-09-11T18:29:19.941Z,94296.16
2022-09-11T18:31:50.157Z,94296.97
2022-09-11T18:34:18.802Z,94299.47
2022-09-11T18:36:46.674Z,94301.09
2022-09-11T18:39:14.659Z,94307.13
2022-09-11T18:41:44.199Z,94300.63
2022-09-11T18:44:18.794Z,94309.34
2022-09-11T18:46:47.449Z,94298.72
2022-09-11T18:49:15.437Z,94297.66
2022-09-11T18:51:43.101Z,94300.94
2022-09-11T18:54:13.102Z,94302.31
2022-09-11T18:57:00.215Z,94309.13
2022-09-11T18:59:52.165Z,94308.56
2022-09-11T19:02:19.860Z,94308.28
2022-09-11T19:04:47.405Z,94316.72
2022-09-11T19:07:15.811Z,94309.13
2022-09-11T19:09:46.038Z,94306.13
2022-09-11T19:12:15.789Z,94310.78
2022-09-11T19:14:43.357Z,94308.63
2022-09-11T19:17:12.520Z,94305.38
2022-09-11T19:19:40.088Z,94311.88
2022-09-11T19:22:07.708Z,94314.34
2022-09-11T19:24:35.552Z,94312.44
2022-09-11T19:27:03.216Z,94317.06
2022-09-11T19:29:30.873Z,94320.06
2022-09-11T19:32:00.195Z,94317.91
2022-09-11T19:34:29.729Z,94326.84
2022-09-11T19:36:57.481Z,94315.44
2022-09-11T19:39:25.008Z,94317.38
2022-09-11T19:41:52.561Z,94314.91
2022-09-11T19:44:20.961Z,94314.91
2022-09-11T19:46:49.919Z,94315.19
2022-09-11T19:49:17.809Z,94311.13
2022-09-11T19:51:46.762Z,94317.34
2022-09-11T19:54:14.763Z,94313.84
2022-09-11T19:56:44.279Z,94313.31
2022-09-11T19:59:12.530Z,94305.16
2022-09-11T20:01:40.118Z,94305.41
2022-09-11T20:04:07.755Z,94308.13
2022-09-11T20:06:35.471Z,94303.78
2022-09-11T20:11:52.232Z,94311.41
2022-09-11T20:14:19.821Z,94314.13
2022-09-11T20:16:47.353Z,94304.34
2022-09-11T20:19:15.032Z,94308.97
2022-09-11T20:21:42.757Z,94308.16
2022-09-11T20:24:11.681Z,94301.88
2022-09-11T20:26:39.208Z,94306.53
2022-09-11T20:29:07.793Z,94305.69
2022-09-11T20:31:41.210Z,94309.25
2022-09-11T20:34:13.821Z,94304.06
2022-09-11T20:36:41.338Z,94301.34
2022-09-11T20:39:08.872Z,94305.97
2022-09-11T20:41:38.161Z,94307.06
2022-09-11T20:44:05.709Z,94308.16
2022-09-11T20:46:33.268Z,94299.19
2022-09-11T20:49:01.009Z,94303.81
2022-09-11T20:51:28.657Z,94296.47
2022-09-11T20:53:56.269Z,94298.09
2022-09-11T20:56:24.025Z,94296.47
2022-09-11T20:58:53.104Z,94291.84
2022-09-11T21:01:22.016Z,94288.31
2022-09-11T21:03:50.457Z,94289.13
2022-09-11T21:06:22.053Z,94291.28
2022-09-11T21:08:52.669Z,94296.72
2022-09-11T21:11:20.196Z,94295.94
2022-09-11T21:13:47.754Z,94299.72
2022-09-11T21:16:16.881Z,94300.56
2022-09-11T21:18:46.524Z,94303.25
2022-09-11T21:21:14.070Z,94305.16
2022-09-11T21:23:41.576Z,94296.19
2022-09-11T21:26:09.516Z,94295.38
2022-09-11T21:28:37.074Z,94300.00
2022-09-11T21:31:04.927Z,94302.72
2022-09-11T21:33:34.970Z,94303.81
2022-09-11T21:36:03.020Z,94306.25
2022-09-11T21:38:30.848Z,94301.91
2022-09-11T21:40:59.080Z,94293.75
2022-09-11T21:43:26.699Z,94294.56
2022-09-11T21:45:54.253Z,94304.91
2022-09-11T21:48:21.760Z,94295.94
2022-09-11T21:50:50.855Z,94291.59
2022-09-11T21:53:18.467Z,94292.41
2022-09-11T21:55:46.749Z,94289.97
2022-09-11T21:58:15.671Z,94295.13
2022-09-11T22:00:43.598Z,94291.59
2022-09-11T22:03:11.935Z,94289.97
2022-09-11T22:05:40.840Z,94288.06
2022-09-11T22:08:10.355Z,94290.78
2022-09-11T22:10:41.944Z,94288.31
2022-09-11T22:13:09.960Z,94285.63
2022-09-11T22:15:40.501Z,94284.78
2022-09-11T22:18:08.097Z,94282.06
2022-09-11T22:20:35.662Z,94275.81
2022-09-11T22:23:03.228Z,94289.41
2022-09-11T22:25:32.778Z,94291.31
2022-09-11T22:28:00.422Z,94289.69
2022-09-11T22:30:29.555Z,94286.16
2022-09-11T22:32:57.076Z,94288.88
2022-09-11T22:35:24.614Z,94288.59
2022-09-11T22:37:52.155Z,94284.25
2022-09-11T22:40:19.862Z,94290.78
2022-09-11T22:42:49.737Z,94280.72
2022-09-11T22:45:17.324Z,94282.63
2022-09-11T22:47:44.851Z,94279.09
2022-09-11T22:50:13.166Z,94280.19
2022-09-11T22:52:41.290Z,94282.09
2022-09-11T22:55:10.144Z,94275.03
2022-09-11T22:57:37.900Z,94275.84
2022-09-11T23:00:07.979Z,94268.50
2022-09-11T23:02:35.960Z,94264.97
2022-09-11T23:05:21.057Z,94264.16
2022-09-11T23:07:49.428Z,94271.47
2022-09-11T23:10:17.243Z,94264.16
2022-09-11T23:12:45.185Z,94267.13
2022-09-11T23:15:14.098Z,94265.25
2022-09-11T23:17:41.649Z,94262.53
2022-09-11T23:20:09.689Z,94263.63
2022-09-11T23:22:37.319Z,94258.19
2022-09-11T23:25:05.185Z,94262.78
2022-09-11T23:27:32.836Z,94260.91
2022-09-11T23:30:00.437Z,94257.34
2022-09-11T23:32:29.295Z,94260.91
2022-09-11T23:34:56.858Z,94246.47
2022-09-11T23:37:24.469Z,94251.13
2022-09-11T23:39:52.045Z,94248.41
2022-09-11T23:42:19.639Z,94252.19
2022-09-11T23:44:47.181Z,94247.56
2022-09-11T23:47:14.743Z,94246.75
2022-09-11T23:49:43.823Z,94240.50
2022-09-11T23:52:11.392Z,94242.41
2022-09-11T23:54:39.046Z,94241.34
2022-09-11T23:57:06.630Z,94243.22
2022-09-11T23:59:36.242Z,94243.50
